Time;durP1;ratioP1;P1;durP2;ratioP2;P2;SDS_P1;SDS_P2;PMS_P1;PMS_P2;Temp;Humidity;BMP_temperature;BMP_pressure;BME280_temperature;BME280_humidity;BME280_pressure;Samples;Min_cycle;Max_cycle;Signal;HPM_P1;HPM_P2
2022/11/28 00:00:32;;;;;;;;;;;;;;;-3.40;84.69;101717.13;6185372;23;19940;-67
2022/11/28 00:02:58;;;;;;;;;;;;;;;-3.41;85.09;101710.09;6182747;23;19920;-67
2022/11/28 00:05:24;;;;;;;;;;;;;;;-3.46;84.78;101713.16;6148683;23;19927;-68
2022/11/28 00:07:49;;;;;;;;;;;;;;;-3.51;85.10;101712.72;6146847;23;19939;-67
2022/11/28 00:10:17;;;;;;;;;;;;;;;-3.50;85.22;101709.06;6147801;23;19923;-67
2022/11/28 00:12:43;;;;;;;;;;;;;;;-3.48;85.32;101711.59;6157110;23;19920;-67
2022/11/28 00:15:10;;;;;;;;;;;;;;;-3.46;85.15;101717.66;6174225;23;19951;-67
2022/11/28 00:17:35;;;;;;;;;;;;;;;-3.42;85.37;101717.25;6176161;23;20255;-67
2022/11/28 00:20:01;;;;;;;;;;;;;;;-3.36;85.28;101717.69;6188852;23;19931;-67
2022/11/28 00:22:28;;;;;;;;;;;;;;;-3.44;85.06;101715.69;6174874;23;20015;-67
2022/11/28 00:24:54;;;;;;;;;;;;;;;-3.44;85.16;101713.88;6185376;23;19955;-67
2022/11/28 00:27:21;;;;;;;;;;;;;;;-3.35;85.29;101706.84;6181664;23;20348;-67
2022/11/28 00:29:47;;;;;;;;;;;;;;;-3.45;85.03;101698.81;6157934;23;19962;-67
2022/11/28 00:32:13;;;;;;;;;;;;;;;-3.37;85.02;101707.97;6179613;23;20450;-68
2022/11/28 00:34:38;;;;;;;;;;;;;;;-3.39;85.01;101704.56;6156629;23;19919;-68
2022/11/28 00:37:04;;;;;;;;;;;;;;;-3.38;84.85;101703.59;6123369;23;19928;-67
2022/11/28 00:39:30;;;;;;;;;;;;;;;-3.43;85.05;101704.84;6196462;23;19920;-69
2022/11/28 00:41:55;;;;;;;;;;;;;;;-3.42;84.96;101708.41;6173356;23;19920;-67
2022/11/28 00:44:23;;;;;;;;;;;;;;;-3.41;85.06;101707.41;6123630;23;19924;-67
2022/11/28 00:46:49;;;;;;;;;;;;;;;-3.41;85.26;101704.72;6182674;23;19920;-67
2022/11/28 00:49:15;;;;;;;;;;;;;;;-3.42;85.14;101711.06;6183062;23;20237;-70
2022/11/28 00:51:41;;;;;;;;;;;;;;;-3.43;85.33;101712.06;6174564;23;19943;-67
2022/11/28 00:54:06;;;;;;;;;;;;;;;-3.43;85.44;101712.06;6148123;23;19970;-67
2022/11/28 00:56:34;;;;;;;;;;;;;;;-3.43;85.33;101710.22;6171018;23;19927;-67
2022/11/28 00:58:59;;;;;;;;;;;;;;;-3.41;85.01;101707.41;6156518;23;19926;-67
2022/11/28 01:01:27;;;;;;;;;;;;;;;-3.39;84.90;101709.94;6147065;23;19960;-66
2022/11/28 01:03:54;;;;;;;;;;;;;;;-3.40;84.57;101709.09;6183740;23;19920;-67
2022/11/28 01:06:21;;;;;;;;;;;;;;;-3.44;84.56;101704.97;6182340;23;19997;-67
2022/11/28 01:08:46;;;;;;;;;;;;;;;-3.48;84.50;101703.56;6176674;23;19920;-66
2022/11/28 01:11:12;;;;;;;;;;;;;;;-3.52;84.65;101702.16;6174087;23;20010;-68
2022/11/28 01:13:38;;;;;;;;;;;;;;;-3.54;84.55;101709.47;6148198;23;19920;-68
2022/11/28 01:16:04;;;;;;;;;;;;;;;-3.58;84.67;101704.41;6182528;23;19974;-67
2022/11/28 01:18:31;;;;;;;;;;;;;;;-3.56;84.74;101709.59;6155932;23;20256;-67
2022/11/28 01:20:57;;;;;;;;;;;;;;;-3.55;84.92;101711.28;6183766;23;19927;-67
2022/11/28 01:23:23;;;;;;;;;;;;;;;-3.54;85.02;101710.28;6173826;23;19924;-67
2022/11/28 01:25:48;;;;;;;;;;;;;;;-3.56;84.96;101709.59;6187528;23;19920;-67
2022/11/28 01:28:14;;;;;;;;;;;;;;;-3.53;85.22;101717.34;6182669;23;20228;-67
2022/11/28 01:30:40;;;;;;;;;;;;;;;-3.49;85.23;101720.59;6147123;23;19939;-68
2022/11/28 01:33:05;;;;;;;;;;;;;;;-3.51;85.49;101722.56;6182208;23;19924;-68
2022/11/28 01:35:33;;;;;;;;;;;;;;;-3.53;85.64;101721.84;6172922;23;19931;-68
2022/11/28 01:37:58;;;;;;;;;;;;;;;-3.65;85.77;101721.94;6155962;23;19920;-68
2022/11/28 01:40:24;;;;;;;;;;;;;;;-3.68;85.87;101721.34;6146230;23;19974;-68
2022/11/28 01:42:50;;;;;;;;;;;;;;;-3.81;85.83;101716.22;6183272;23;20201;-67
2022/11/28 01:45:18;;;;;;;;;;;;;;;-3.84;86.41;101717.34;6147362;23;19920;-71
2022/11/28 01:47:44;;;;;;;;;;;;;;;-3.87;86.50;101715.78;6197902;23;20271;-71
2022/11/28 01:50:11;;;;;;;;;;;;;;;-3.83;86.73;101715.53;6173572;23;19951;-71
2022/11/28 01:52:39;;;;;;;;;;;;;;;-3.89;86.64;101716.91;6207200;23;19932;-71
2022/11/28 01:55:05;;;;;;;;;;;;;;;-4.03;86.63;101721.59;6183026;23;20340;-71
2022/11/28 01:57:32;;;;;;;;;;;;;;;-4.06;86.83;101715.66;6157205;23;20006;-71
2022/11/28 02:00:01;;;;;;;;;;;;;;;-4.03;86.91;101715.44;6182435;23;20340;-71
2022/11/28 02:02:32;;;;;;;;;;;;;;;-3.98;86.73;101721.22;6147386;23;19951;-70
2022/11/28 02:04:58;;;;;;;;;;;;;;;-4.01;86.39;101721.47;6173019;23;20437;-71
2022/11/28 02:07:24;;;;;;;;;;;;;;;-4.03;86.45;101726.13;6183026;23;19920;-71
2022/11/28 02:09:51;;;;;;;;;;;;;;;-4.08;86.15;101728.31;6149799;23;19920;-66
2022/11/28 02:12:25;;;;;;;;;;;;;;;-4.12;86.18;101727.75;6187834;23;19920;-66
2022/11/28 02:15:02;;;;;;;;;;;;;;;-4.16;85.99;101728.97;6149284;23;19924;-66
2022/11/28 02:17:37;;;;;;;;;;;;;;;-4.21;85.96;101733.88;6149357;23;19920;-67
2022/11/28 02:20:23;;;;;;;;;;;;;;;-4.27;85.73;101733.41;6161748;23;19920;-67
2022/11/28 02:22:53;;;;;;;;;;;;;;;-4.36;85.41;101730.69;6198647;23;20351;-67
2022/11/28 02:25:35;;;;;;;;;;;;;;;-4.45;85.37;101740.28;6148585;23;19924;-67
2022/11/28 02:28:12;;;;;;;;;;;;;;;-4.47;85.63;101732.41;6148998;23;20502;-66
2022/11/28 02:30:44;;;;;;;;;;;;;;;-4.46;85.60;101751.94;6133158;23;20015;-67
2022/11/28 02:33:17;;;;;;;;;;;;;;;-4.51;85.66;101746.13;6148890;23;20272;-66
2022/11/28 02:35:48;;;;;;;;;;;;;;;-4.45;85.53;101757.16;6150344;23;19923;-67
2022/11/28 02:38:19;;;;;;;;;;;;;;;-4.47;84.94;101761.78;6189489;23;19926;-67
2022/11/28 02:40:48;;;;;;;;;;;;;;;-4.51;85.02;101757.69;6147686;23;19920;-67
2022/11/28 02:43:19;;;;;;;;;;;;;;;-4.53;84.79;101764.94;6183456;23;19920;-67
2022/11/28 02:45:49;;;;;;;;;;;;;;;-4.52;84.94;101763.13;6174514;23;19955;-67
2022/11/28 02:48:22;;;;;;;;;;;;;;;-4.52;84.70;101756.00;6172660;23;19989;-67
2022/11/28 02:50:51;;;;;;;;;;;;;;;-4.50;84.72;101754.03;6150445;23;19920;-67
2022/11/28 02:53:19;;;;;;;;;;;;;;;-4.49;84.74;101762.88;6149228;23;20019;-67
2022/11/28 02:55:45;;;;;;;;;;;;;;;-4.49;84.50;101757.53;6158494;23;19920;-67
2022/11/28 02:58:11;;;;;;;;;;;;;;;-4.56;84.28;101768.75;6174323;23;20047;-67
2022/11/28 03:00:38;;;;;;;;;;;;;;;-4.58;84.41;101764.50;6184925;23;19920;-67
2022/11/28 03:03:24;;;;;;;;;;;;;;;-4.58;84.59;101760.03;6173287;23;19920;-67
2022/11/28 03:05:56;;;;;;;;;;;;;;;-4.49;84.45;101760.22;6185428;23;20410;-67
2022/11/28 03:08:30;;;;;;;;;;;;;;;-4.39;84.42;101763.81;6185953;23;20015;-67
2022/11/28 03:10:58;;;;;;;;;;;;;;;-4.42;83.91;101759.56;6175676;23;19920;-70
2022/11/28 03:13:29;;;;;;;;;;;;;;;-4.57;83.68;101758.19;6175692;23;20019;-72
2022/11/28 03:16:01;;;;;;;;;;;;;;;-4.63;83.94;101767.53;6148567;23;19951;-72
2022/11/28 03:18:30;;;;;;;;;;;;;;;-4.63;84.15;101772.88;6186289;23;19927;-70
2022/11/28 03:21:00;;;;;;;;;;;;;;;-4.60;84.36;101772.66;6148663;23;19920;-69
2022/11/28 03:23:29;;;;;;;;;;;;;;;-4.61;84.21;101773.59;6185179;23;19927;-70
2022/11/28 03:25:57;;;;;;;;;;;;;;;-4.65;84.23;101774.81;6183229;23;19920;-70
2022/11/28 03:28:26;;;;;;;;;;;;;;;-4.68;84.29;101774.22;6174262;23;20006;-70
2022/11/28 03:30:53;;;;;;;;;;;;;;;-4.69;84.38;101786.75;6183717;23;19930;-71
2022/11/28 03:33:21;;;;;;;;;;;;;;;-4.66;84.49;101783.81;6157402;23;20006;-71
2022/11/28 03:35:51;;;;;;;;;;;;;;;-4.69;84.59;101781.41;6186697;23;20029;-71
2022/11/28 03:38:19;;;;;;;;;;;;;;;-4.65;84.54;101777.50;6124920;23;19927;-70
2022/11/28 03:40:48;;;;;;;;;;;;;;;-4.53;84.45;101772.13;6198758;23;19942;-71
2022/11/28 03:43:16;;;;;;;;;;;;;;;-4.47;84.29;101776.94;6148331;23;19920;-71
2022/11/28 03:45:44;;;;;;;;;;;;;;;-4.48;83.99;101789.47;6184853;23;20003;-67
2022/11/28 03:48:12;;;;;;;;;;;;;;;-4.51;83.94;101791.53;6148040;23;19920;-67
2022/11/28 03:50:41;;;;;;;;;;;;;;;-4.54;83.79;101789.13;6173388;23;19965;-67
2022/11/28 03:53:10;;;;;;;;;;;;;;;-4.55;84.05;101796.28;6122722;23;19920;-67
2022/11/28 03:55:39;;;;;;;;;;;;;;;-4.51;83.80;101788.88;6173961;23;19958;-67
2022/11/28 03:58:08;;;;;;;;;;;;;;;-4.57;83.56;101795.56;6174708;23;19920;-67
2022/11/28 04:00:36;;;;;;;;;;;;;;;-4.58;83.65;101793.88;6183251;23;20414;-67
2022/11/28 04:03:08;;;;;;;;;;;;;;;-4.60;83.90;101793.16;6186383;23;19951;-67
2022/11/28 04:05:37;;;;;;;;;;;;;;;-4.63;83.88;101799.56;6173776;23;20362;-67
2022/11/28 04:08:09;;;;;;;;;;;;;;;-4.70;83.89;101798.41;6184422;23;19927;-67
2022/11/28 04:10:40;;;;;;;;;;;;;;;-4.89;84.04;101775.00;6182675;23;19927;-67
2022/11/28 04:13:09;;;;;;;;;;;;;;;-4.77;84.14;101799.84;6183995;23;19920;-67
2022/11/28 04:15:38;;;;;;;;;;;;;;;-4.78;84.39;101803.50;6195843;23;19920;-67
2022/11/28 04:18:12;;;;;;;;;;;;;;;-4.78;84.50;101808.84;6154101;23;19926;-67
2022/11/28 04:20:42;;;;;;;;;;;;;;;-4.81;84.59;101817.97;6172837;23;19920;-67
2022/11/28 04:23:09;;;;;;;;;;;;;;;-4.75;84.74;101809.44;6157825;23;20354;-67
2022/11/28 04:25:38;;;;;;;;;;;;;;;-4.71;84.73;101812.72;6182180;23;19935;-67
2022/11/28 04:28:07;;;;;;;;;;;;;;;-4.59;84.56;101803.72;6182538;23;19943;-66
2022/11/28 04:30:35;;;;;;;;;;;;;;;-4.57;84.16;101803.56;6177997;23;19967;-67
2022/11/28 04:33:04;;;;;;;;;;;;;;;-4.54;83.89;101808.66;6177025;23;19920;-67
2022/11/28 04:35:32;;;;;;;;;;;;;;;-4.57;84.16;101808.91;6185146;23;19920;-67
2022/11/28 04:37:59;;;;;;;;;;;;;;;-4.48;84.21;101801.97;6149069;23;19920;-67
2022/11/28 04:40:26;;;;;;;;;;;;;;;-4.42;83.64;101809.50;6173003;23;19920;-67
2022/11/28 04:42:56;;;;;;;;;;;;;;;-4.38;83.71;101804.72;6175149;23;19924;-67
2022/11/28 04:45:26;;;;;;;;;;;;;;;-4.35;83.56;101802.66;6123849;23;19924;-67
2022/11/28 04:47:51;;;;;;;;;;;;;;;-4.33;83.18;101814.06;6183526;23;20010;-71
2022/11/28 04:50:17;;;;;;;;;;;;;;;-4.39;82.96;101811.91;6184961;23;20333;-71
2022/11/28 04:52:45;;;;;;;;;;;;;;;-4.47;83.16;101812.53;6150802;23;19947;-71
2022/11/28 04:55:21;;;;;;;;;;;;;;;-4.46;83.15;101814.22;6174215;23;19920;-71
2022/11/28 04:57:48;;;;;;;;;;;;;;;-4.44;83.12;101804.25;6198915;23;19967;-71
2022/11/28 05:00:17;;;;;;;;;;;;;;;-4.45;82.97;101815.06;6185767;23;19959;-71
2022/11/28 05:02:44;;;;;;;;;;;;;;;-4.51;83.22;101823.59;6148464;23;20324;-71
2022/11/28 05:05:12;;;;;;;;;;;;;;;-4.52;83.31;101824.56;6173494;23;19930;-71
2022/11/28 05:07:38;;;;;;;;;;;;;;;-4.49;83.24;101830.50;6183199;23;20370;-67
2022/11/28 05:10:04;;;;;;;;;;;;;;;-4.50;83.15;101820.81;6170951;23;19920;-68
2022/11/28 05:12:30;;;;;;;;;;;;;;;-4.52;83.05;101824.56;6173274;23;19927;-67
2022/11/28 05:14:56;;;;;;;;;;;;;;;-4.47;83.39;101833.91;6156090;23;19920;-71
2022/11/28 05:17:23;;;;;;;;;;;;;;;-4.46;82.94;101832.91;6145408;23;19955;-71
2022/11/28 05:19:49;;;;;;;;;;;;;;;-4.45;83.02;101836.44;6183335;23;19924;-72
2022/11/28 05:22:14;;;;;;;;;;;;;;;-4.43;83.33;101847.84;6182949;23;19974;-71
2022/11/28 05:24:40;;;;;;;;;;;;;;;-4.42;83.06;101846.88;6173282;23;19926;-71
2022/11/28 05:27:06;;;;;;;;;;;;;;;-4.46;82.83;101838.25;6146190;23;19943;-71
2022/11/28 05:29:32;;;;;;;;;;;;;;;-4.44;83.02;101856.84;6173389;23;19924;-71
2022/11/28 05:31:58;;;;;;;;;;;;;;;-4.47;82.98;101857.06;6172695;23;19920;-70
2022/11/28 05:34:25;;;;;;;;;;;;;;;-4.46;83.14;101851.63;6179215;23;20016;-71
2022/11/28 05:36:51;;;;;;;;;;;;;;;-4.41;83.20;101859.25;6152299;23;19934;-71
2022/11/28 05:39:17;;;;;;;;;;;;;;;-4.41;82.97;101867.28;6175432;23;19927;-71
2022/11/28 05:41:43;;;;;;;;;;;;;;;-4.41;83.00;101864.59;6185704;23;20314;-71
2022/11/28 05:44:09;;;;;;;;;;;;;;;-4.45;82.89;101865.81;6188387;23;19999;-71
2022/11/28 05:46:35;;;;;;;;;;;;;;;-4.42;83.11;101869.09;6178553;23;19927;-71
2022/11/28 05:49:00;;;;;;;;;;;;;;;-4.44;83.01;101868.38;6177801;23;20215;-71
2022/11/28 05:51:28;;;;;;;;;;;;;;;-4.44;83.11;101883.56;6152496;23;20355;-71
2022/11/28 05:53:54;;;;;;;;;;;;;;;-4.43;82.99;101878.06;6174941;23;19935;-71
2022/11/28 05:56:21;;;;;;;;;;;;;;;-4.32;83.07;101879.03;6147039;23;20371;-71
2022/11/28 05:58:47;;;;;;;;;;;;;;;-4.33;82.73;101872.81;6176055;23;20019;-67
2022/11/28 06:01:14;;;;;;;;;;;;;;;-4.31;82.68;101880.72;6147490;23;19954;-67
2022/11/28 06:03:40;;;;;;;;;;;;;;;-4.30;82.64;101883.25;6177048;23;19983;-66
2022/11/28 06:06:14;;;;;;;;;;;;;;;-4.24;82.54;101886.41;6150269;23;20007;-66
2022/11/28 06:08:41;;;;;;;;;;;;;;;-4.25;82.50;101890.06;6185629;23;20366;-67
2022/11/28 06:11:07;;;;;;;;;;;;;;;-4.25;82.55;101890.06;6149419;23;19995;-67
2022/11/28 06:13:33;;;;;;;;;;;;;;;-4.24;82.28;101889.91;6123587;23;19931;-66
2022/11/28 06:15:59;;;;;;;;;;;;;;;-4.27;82.28;101883.03;6175137;23;19920;-66
2022/11/28 06:18:25;;;;;;;;;;;;;;;-4.24;82.34;101886.41;6172059;23;19955;-66
2022/11/28 06:20:50;;;;;;;;;;;;;;;-4.22;82.27;101877.28;6182199;23;20403;-67
2022/11/28 06:23:16;;;;;;;;;;;;;;;-4.20;82.02;101880.69;6149162;23;20401;-66
2022/11/28 06:25:43;;;;;;;;;;;;;;;-4.22;81.73;101881.78;6185536;23;20267;-67
2022/11/28 06:28:09;;;;;;;;;;;;;;;-4.21;81.75;101878.13;6186516;23;20011;-67
2022/11/28 06:30:35;;;;;;;;;;;;;;;-4.10;81.88;101891.47;6126486;23;19952;-67
2022/11/28 06:33:00;;;;;;;;;;;;;;;-4.02;81.32;101891.66;6179731;23;19920;-71
2022/11/28 06:35:26;;;;;;;;;;;;;;;-3.94;81.19;101896.38;6178955;23;20267;-70
2022/11/28 06:37:52;;;;;;;;;;;;;;;-3.90;80.85;101895.19;6150980;23;20255;-70
2022/11/28 06:40:18;;;;;;;;;;;;;;;-3.88;80.42;101887.00;6151067;23;19927;-71
2022/11/28 06:42:49;;;;;;;;;;;;;;;-3.93;80.07;101892.72;6191189;23;19920;-70
2022/11/28 06:45:15;;;;;;;;;;;;;;;-3.89;80.05;101888.84;6179412;23;20011;-70
2022/11/28 06:47:40;;;;;;;;;;;;;;;-3.92;80.10;101902.44;6176815;23;20328;-71
2022/11/28 06:50:08;;;;;;;;;;;;;;;-3.93;80.16;101897.25;6151002;23;20244;-70
2022/11/28 06:52:34;;;;;;;;;;;;;;;-4.03;80.20;101889.16;6152903;23;19962;-70
2022/11/28 06:54:59;;;;;;;;;;;;;;;-4.14;80.73;101898.03;6158430;23;19921;-70
2022/11/28 06:57:25;;;;;;;;;;;;;;;-4.19;81.00;101895.75;6159352;23;19920;-70
2022/11/28 06:59:52;;;;;;;;;;;;;;;-4.28;81.55;101892.00;6148897;23;20299;-71
2022/11/28 07:02:18;;;;;;;;;;;;;;;-4.23;81.92;101898.78;6149357;23;20276;-71
2022/11/28 07:04:44;;;;;;;;;;;;;;;-4.19;81.80;101901.09;6160850;23;19920;-70
2022/11/28 07:07:09;;;;;;;;;;;;;;;-4.16;81.85;101895.50;6177942;23;19924;-70
2022/11/28 07:09:35;;;;;;;;;;;;;;;-4.12;81.60;101901.44;6152899;23;19943;-71
2022/11/28 07:12:01;;;;;;;;;;;;;;;-4.15;81.72;101904.34;6151083;23;20639;-70
2022/11/28 07:14:27;;;;;;;;;;;;;;;-4.24;81.60;101899.78;6174111;23;19920;-66
2022/11/28 07:16:54;;;;;;;;;;;;;;;-4.27;81.72;101909.75;6185384;23;20391;-66
2022/11/28 07:19:21;;;;;;;;;;;;;;;-4.25;81.89;101906.94;6175788;23;20004;-66
2022/11/28 07:21:48;;;;;;;;;;;;;;;-4.33;81.63;101901.38;6172928;23;19947;-66
2022/11/28 07:24:13;;;;;;;;;;;;;;;-4.44;82.04;101911.09;6181298;23;20267;-66
2022/11/28 07:26:39;;;;;;;;;;;;;;;-4.45;82.46;101908.53;6173023;23;20019;-66
2022/11/28 07:29:06;;;;;;;;;;;;;;;-4.41;82.52;101918.84;6147752;23;20344;-66
2022/11/28 07:31:32;;;;;;;;;;;;;;;-4.38;82.46;101915.09;6175824;23;20014;-66
2022/11/28 07:34:01;;;;;;;;;;;;;;;-4.37;82.35;101913.25;6206878;23;19920;-66
2022/11/28 07:36:27;;;;;;;;;;;;;;;-4.37;82.46;101906.13;6172595;23;19975;-66
2022/11/28 07:38:55;;;;;;;;;;;;;;;-4.38;82.56;101909.75;6147262;23;20343;-66
2022/11/28 07:41:21;;;;;;;;;;;;;;;-4.39;82.53;101917.88;6174073;23;19927;-66
2022/11/28 07:43:47;;;;;;;;;;;;;;;-4.42;82.60;101909.16;6199980;23;20011;-66
2022/11/28 07:46:14;;;;;;;;;;;;;;;-4.43;82.48;101910.13;6208569;23;19920;-67
2022/11/28 07:48:40;;;;;;;;;;;;;;;-4.43;82.48;101920.81;6122057;23;19920;-66
2022/11/28 07:51:08;;;;;;;;;;;;;;;-4.42;82.52;101919.84;6184829;23;20310;-66
2022/11/28 07:53:34;;;;;;;;;;;;;;;-4.43;82.24;101918.13;6181306;23;20118;-66
2022/11/28 07:56:00;;;;;;;;;;;;;;;-4.43;82.23;101926.16;6155066;23;19950;-66
2022/11/28 07:58:26;;;;;;;;;;;;;;;-4.45;82.01;101935.25;6169877;23;19920;-66
2022/11/28 08:00:52;;;;;;;;;;;;;;;-4.40;82.29;101922.41;6206021;23;20367;-66
2022/11/28 08:03:18;;;;;;;;;;;;;;;-4.38;82.01;101924.91;6177210;23;20011;-66
2022/11/28 08:05:48;;;;;;;;;;;;;;;-4.38;81.88;101925.78;6149406;23;19920;-66
2022/11/28 08:08:16;;;;;;;;;;;;;;;-4.39;81.65;101924.09;6184155;23;19920;-66
2022/11/28 08:10:41;;;;;;;;;;;;;;;-4.42;81.57;101933.19;6183122;23;19919;-66
2022/11/28 08:13:07;;;;;;;;;;;;;;;-4.41;81.73;101926.88;6181222;23;20263;-66
2022/11/28 08:15:35;;;;;;;;;;;;;;;-4.36;81.59;101926.50;6181850;23;19982;-66
2022/11/28 08:18:01;;;;;;;;;;;;;;;-4.34;81.30;101935.25;6182321;23;19919;-67
2022/11/28 08:20:27;;;;;;;;;;;;;;;-4.46;81.02;101918.38;6168573;23;20343;-70
2022/11/28 08:22:52;;;;;;;;;;;;;;;-4.30;81.02;101942.03;6182926;23;19985;-71
2022/11/28 08:25:19;;;;;;;;;;;;;;;-4.26;80.94;101939.97;6173021;23;20469;-71
2022/11/28 08:27:45;;;;;;;;;;;;;;;-4.20;80.95;101942.16;6172895;23;19927;-70
2022/11/28 08:30:11;;;;;;;;;;;;;;;-4.18;80.59;101948.22;6182935;23;20300;-71
2022/11/28 08:32:37;;;;;;;;;;;;;;;-4.20;80.78;101941.28;6175662;23;19921;-70
2022/11/28 08:35:03;;;;;;;;;;;;;;;-4.18;80.45;101945.53;6174543;23;20303;-70
2022/11/28 08:37:29;;;;;;;;;;;;;;;-4.11;80.75;101942.38;6170169;23;20298;-71
2022/11/28 08:39:55;;;;;;;;;;;;;;;-4.03;80.50;101939.94;6170599;23;19994;-71
2022/11/28 08:42:22;;;;;;;;;;;;;;;-4.00;79.97;101951.19;6156279;23;20237;-71
2022/11/28 08:44:48;;;;;;;;;;;;;;;-3.97;79.93;101954.63;6144577;23;19920;-70
2022/11/28 08:47:14;;;;;;;;;;;;;;;-4.03;79.47;101946.09;6180723;23;20062;-70
2022/11/28 08:49:41;;;;;;;;;;;;;;;-4.05;79.51;101950.72;6155940;23;19948;-71
2022/11/28 08:52:06;;;;;;;;;;;;;;;-4.04;79.55;101962.28;6194599;23;19920;-70
2022/11/28 08:54:32;;;;;;;;;;;;;;;-3.99;79.42;101971.59;6118168;23;20447;-70
2022/11/28 08:57:00;;;;;;;;;;;;;;;-4.00;79.12;101964.56;6151759;23;19924;-71
2022/11/28 08:59:27;;;;;;;;;;;;;;;-4.05;78.70;101960.59;6143647;23;19924;-70
2022/11/28 09:01:53;;;;;;;;;;;;;;;-4.12;78.84;101957.56;6169442;23;20001;-66
2022/11/28 09:04:19;;;;;;;;;;;;;;;-4.04;78.81;101959.63;6164583;23;19920;-66
2022/11/28 09:06:44;;;;;;;;;;;;;;;-4.02;78.27;101950.47;6166160;23;20003;-67
2022/11/28 09:09:10;;;;;;;;;;;;;;;-4.03;78.42;101958.63;6185192;23;19970;-68
2022/11/28 09:11:36;;;;;;;;;;;;;;;-4.01;78.05;101962.03;6146963;23;19927;-66
2022/11/28 09:14:02;;;;;;;;;;;;;;;-4.01;78.30;101954.84;6172277;23;19920;-70
2022/11/28 09:16:29;;;;;;;;;;;;;;;-4.04;78.08;101957.78;6182236;23;20263;-66
2022/11/28 09:18:57;;;;;;;;;;;;;;;-4.01;78.13;101956.69;6147861;23;19986;-66
2022/11/28 09:21:24;;;;;;;;;;;;;;;-4.06;77.66;101958.88;6183150;23;19954;-66
2022/11/28 09:23:50;;;;;;;;;;;;;;;-4.10;77.59;101960.97;6175027;23;19928;-70
2022/11/28 09:26:17;;;;;;;;;;;;;;;-4.13;77.82;101951.34;6204369;23;19943;-71
2022/11/28 09:28:43;;;;;;;;;;;;;;;-4.16;77.53;101954.28;6145092;23;20012;-70
2022/11/28 09:31:11;;;;;;;;;;;;;;;-4.15;77.53;101958.66;6182705;23;19920;-70
2022/11/28 09:33:38;;;;;;;;;;;;;;;-4.19;77.02;101953.69;6182946;23;19966;-70
2022/11/28 09:36:05;;;;;;;;;;;;;;;-4.24;76.82;101961.22;6186382;23;20343;-70
2022/11/28 09:38:31;;;;;;;;;;;;;;;-4.21;76.92;101961.84;6173833;23;19920;-70
2022/11/28 09:40:57;;;;;;;;;;;;;;;-4.22;76.73;101962.78;6186135;23;20011;-71
2022/11/28 09:43:27;;;;;;;;;;;;;;;-4.20;76.44;101960.88;6149153;23;19956;-70
2022/11/28 09:45:54;;;;;;;;;;;;;;;-4.18;76.62;101963.38;6170938;23;19924;-71
2022/11/28 09:48:26;;;;;;;;;;;;;;;-4.16;76.35;101958.75;6148122;23;19920;-71
2022/11/28 09:50:56;;;;;;;;;;;;;;;-4.18;76.14;101958.91;6145093;23;19966;-71
2022/11/28 09:53:25;;;;;;;;;;;;;;;-4.21;75.88;101959.16;6182956;23;19931;-71
2022/11/28 09:55:53;;;;;;;;;;;;;;;-4.21;75.79;101956.50;6169207;23;19920;-71
2022/11/28 09:58:24;;;;;;;;;;;;;;;-4.17;76.01;101962.41;6196905;23;19927;-70
2022/11/28 10:00:56;;;;;;;;;;;;;;;-4.12;75.81;101957.56;6169863;23;20347;-71
2022/11/28 10:03:31;;;;;;;;;;;;;;;-4.11;75.75;101955.72;6169498;23;19928;-67
2022/11/28 10:06:03;;;;;;;;;;;;;;;-4.12;75.79;101962.91;6147209;23;20336;-67
2022/11/28 10:08:35;;;;;;;;;;;;;;;-4.15;75.28;101961.31;6174284;23;19929;-67
2022/11/28 10:11:03;;;;;;;;;;;;;;;-4.15;75.77;101955.13;6174907;23;19920;-67
2022/11/28 10:13:37;;;;;;;;;;;;;;;-4.14;75.60;101960.34;6185039;23;19920;-67
2022/11/28 10:16:08;;;;;;;;;;;;;;;-4.14;75.50;101957.69;6184141;23;19924;-66
2022/11/28 10:18:38;;;;;;;;;;;;;;;-4.17;75.35;101962.41;6147329;23;19927;-71
2022/11/28 10:21:21;;;;;;;;;;;;;;;-4.20;75.33;101955.50;6171508;23;19927;-67
2022/11/28 10:23:47;;;;;;;;;;;;;;;-4.23;75.18;101961.09;6180825;23;19947;-71
2022/11/28 10:26:16;;;;;;;;;;;;;;;-4.27;75.05;101954.31;6174724;23;20271;-71
2022/11/28 10:28:45;;;;;;;;;;;;;;;-4.33;75.19;101950.28;6185847;23;20356;-67
2022/11/28 10:31:13;;;;;;;;;;;;;;;-4.33;75.38;101949.47;6188720;23;19971;-67
2022/11/28 10:33:42;;;;;;;;;;;;;;;-4.36;75.31;101957.72;6174868;23;19939;-68
2022/11/28 10:36:15;;;;;;;;;;;;;;;-4.36;75.69;101955.06;6185386;23;19962;-71
2022/11/28 10:38:40;;;;;;;;;;;;;;;-4.37;75.76;101953.34;6208432;23;20434;-71
2022/11/28 10:41:11;;;;;;;;;;;;;;;-4.58;75.80;101924.72;6174096;23;19920;-71
2022/11/28 10:43:42;;;;;;;;;;;;;;;-4.35;76.00;101949.56;6148938;23;19927;-71
2022/11/28 10:46:20;;;;;;;;;;;;;;;-4.23;75.93;101968.28;6171603;23;19920;-71
2022/11/28 10:48:50;;;;;;;;;;;;;;;-4.21;75.68;101964.50;6148652;23;19920;-71
2022/11/28 10:51:27;;;;;;;;;;;;;;;-4.30;75.09;101958.06;6185682;23;19927;-70
2022/11/28 10:53:59;;;;;;;;;;;;;;;-4.41;74.59;101961.59;6173911;23;19994;-71
2022/11/28 10:56:31;;;;;;;;;;;;;;;-4.45;74.64;101965.50;6142525;23;20366;-71
2022/11/28 10:59:03;;;;;;;;;;;;;;;-4.40;74.58;101954.44;6174203;23;20372;-71
2022/11/28 11:01:30;;;;;;;;;;;;;;;-4.38;73.94;101957.84;6182000;23;20028;-71
2022/11/28 11:03:56;;;;;;;;;;;;;;;-4.38;73.42;101954.31;6175834;23;19939;-70
2022/11/28 11:06:26;;;;;;;;;;;;;;;-4.32;73.17;101948.50;6138775;23;20257;-67
2022/11/28 11:08:52;;;;;;;;;;;;;;;-4.28;72.93;101950.78;6185359;23;20230;-67
2022/11/28 11:11:23;;;;;;;;;;;;;;;-4.26;72.66;101953.31;6183320;23;19952;-67
2022/11/28 11:13:56;;;;;;;;;;;;;;;-4.28;72.69;101949.94;6184044;23;19954;-67
2022/11/28 11:16:22;;;;;;;;;;;;;;;-4.31;72.45;101959.03;6183421;23;20254;-67
2022/11/28 11:18:50;;;;;;;;;;;;;;;-4.33;72.63;101958.31;6144781;23;20248;-67
2022/11/28 11:21:16;;;;;;;;;;;;;;;-4.36;72.52;101958.56;6184150;23;19920;-66
2022/11/28 11:23:44;;;;;;;;;;;;;;;-4.38;72.56;101970.34;6173508;23;19926;-67
2022/11/28 11:26:19;;;;;;;;;;;;;;;-4.41;72.47;101969.63;6184981;23;20006;-67
2022/11/28 11:28:46;;;;;;;;;;;;;;;-4.43;72.49;101976.06;6148729;23;19920;-67
2022/11/28 11:31:19;;;;;;;;;;;;;;;-4.43;72.72;101971.56;6125132;23;20352;-66
2022/11/28 11:33:46;;;;;;;;;;;;;;;-4.40;72.81;101973.16;6172881;23;20003;-67
2022/11/28 11:36:21;;;;;;;;;;;;;;;-4.35;73.03;101970.13;6185601;23;19920;-67
2022/11/28 11:38:48;;;;;;;;;;;;;;;-4.30;73.03;101962.56;6182363;23;19920;-67
2022/11/28 11:41:19;;;;;;;;;;;;;;;-4.37;72.95;101975.56;6158248;23;19967;-67
2022/11/28 11:43:45;;;;;;;;;;;;;;;-4.37;73.08;101974.69;6174419;23;20255;-67
2022/11/28 11:46:12;;;;;;;;;;;;;;;-4.35;73.30;101973.63;6147436;23;20054;-67
2022/11/28 11:48:39;;;;;;;;;;;;;;;-4.35;73.37;101975.47;6182531;23;19920;-71
2022/11/28 11:51:06;;;;;;;;;;;;;;;-4.37;73.52;101982.72;6143955;23;19962;-67
2022/11/28 11:53:32;;;;;;;;;;;;;;;-4.40;73.63;101981.16;6179143;23;20322;-71
2022/11/28 11:56:01;;;;;;;;;;;;;;;-4.41;74.08;101974.94;6171518;23;20018;-70
2022/11/28 11:58:31;;;;;;;;;;;;;;;-4.38;74.25;101984.56;6171730;23;20011;-70
2022/11/28 12:00:58;;;;;;;;;;;;;;;-4.34;74.28;101985.16;6116813;23;19924;-70
2022/11/28 12:03:25;;;;;;;;;;;;;;;-4.34;74.50;101986.00;6167612;23;19975;-71
2022/11/28 12:05:52;;;;;;;;;;;;;;;-4.32;74.70;101985.88;6179227;23;19920;-67
2022/11/28 12:08:23;;;;;;;;;;;;;;;-4.37;74.56;101985.38;6181504;23;19997;-67
2022/11/28 12:10:51;;;;;;;;;;;;;;;-4.37;74.88;101996.06;6181618;23;19927;-67
2022/11/28 12:13:20;;;;;;;;;;;;;;;-4.41;75.00;101990.97;6144143;23;19930;-67
2022/11/28 12:15:52;;;;;;;;;;;;;;;-4.39;75.13;101993.53;6179847;23;19920;-67
2022/11/28 12:18:24;;;;;;;;;;;;;;;-4.40;75.13;101991.84;6167779;23;20272;-67
2022/11/28 12:20:55;;;;;;;;;;;;;;;-4.42;75.24;101986.63;6124506;23;20011;-67
2022/11/28 12:23:32;;;;;;;;;;;;;;;-4.43;75.32;101998.28;6142299;23;19924;-67
2022/11/28 12:26:00;;;;;;;;;;;;;;;-4.47;75.42;101991.47;6153713;23;19924;-67
2022/11/28 12:28:35;;;;;;;;;;;;;;;-4.50;75.60;101990.88;6168937;23;20439;-67
2022/11/28 12:31:04;;;;;;;;;;;;;;;-4.52;75.74;102000.81;6169512;23;19987;-67
2022/11/28 12:33:35;;;;;;;;;;;;;;;-4.50;75.65;101993.53;6200284;23;20358;-67
2022/11/28 12:36:06;;;;;;;;;;;;;;;-4.50;75.74;102001.56;6181269;23;19920;-67
2022/11/28 12:38:38;;;;;;;;;;;;;;;-4.45;75.71;101996.69;6124049;23;19982;-67